Terminal Aerodrome Forecast
Issued by NWS Charleston, WV

Current Version | Previous Version | Graphics & Text | Print | Product List | Glossary On
Versions: 1 2 3 4 5 6 7 8 9 10 11 12 13 14 15 16 17 18 19 20 21 22 23 24
033
FTUS41 KRLX 220523
TAFCRW
TAF
KCRW 220523Z 2206/2306 22006KT P6SM SCT250
     FM230100 17004KT 6SM SHRA OVC060
     FM230300 18007KT 3SM -SHRA OVC025=

USA.gov is the U.S. government's official web portal to all federal, state and local government web resources and services.